Time;durP1;ratioP1;P1;durP2;ratioP2;P2;SDS_P1;SDS_P2;PMS_P1;PMS_P2;Temp;Humidity;BMP_temperature;BMP_pressure;BME280_temperature;BME280_humidity;BME280_pressure;Samples;Min_cycle;Max_cycle;Signal;HPM_P1;HPM_P2
2023/11/10 00:00:10;;;;;;;;;8.00;7.00;;;;;14.18;100.00;98063.09;6196703;28;98597;-66
2023/11/10 00:03:16;;;;;;;;;8.00;7.00;;;;;14.28;100.00;98051.47;6194847;28;98591;-66
2023/11/10 00:06:19;;;;;;;;;10.00;9.60;;;;;14.37;100.00;98044.47;6214633;28;96819;-66
2023/11/10 00:09:23;;;;;;;;;9.00;8.00;;;;;14.39;100.00;98047.75;6212380;28;96513;-66
2023/11/10 00:12:27;;;;;;;;;9.00;8.40;;;;;14.44;100.00;98050.47;6212753;28;96480;-66
2023/11/10 00:15:30;;;;;;;;;7.60;7.60;;;;;14.45;100.00;98045.88;6211888;28;97237;-67
2023/11/10 00:18:35;;;;;;;;;8.40;8.40;;;;;14.43;100.00;98051.53;6213509;28;96379;-66
2023/11/10 00:21:38;;;;;;;;;8.00;7.25;;;;;14.38;100.00;98045.28;6192320;28;96861;-66
2023/11/10 00:24:45;;;;;;;;;9.00;9.00;;;;;14.35;100.00;98032.25;6210702;28;96500;-65
2023/11/10 00:27:48;;;;;;;;;7.80;7.80;;;;;14.35;100.00;98034.97;6185613;28;97737;-66
2023/11/10 00:30:51;;;;;;;;;9.80;9.00;;;;;14.31;100.00;98032.78;6194898;28;98494;-65
2023/11/10 00:33:55;;;;;;;;;14.00;12.00;;;;;14.22;100.00;98031.66;6212996;28;96524;-65
2023/11/10 00:36:59;;;;;;;;;13.75;12.25;;;;;14.19;100.00;98028.66;6199761;28;97303;-66
2023/11/10 00:40:03;;;;;;;;;15.20;13.80;;;;;14.18;100.00;98024.31;6172458;28;98414;-66
2023/11/10 00:43:07;;;;;;;;;15.00;13.40;;;;;14.12;100.00;98028.91;6211430;28;96390;-67
2023/11/10 00:46:10;;;;;;;;;18.00;16.00;;;;;14.07;100.00;98018.06;6192286;28;98452;-66
2023/11/10 00:49:15;;;;;;;;;13.00;12.00;;;;;14.10;100.00;98017.53;6172690;28;96413;-66
2023/11/10 00:52:20;;;;;;;;;18.00;16.40;;;;;14.10;100.00;98009.41;6213078;28;96657;-66
2023/11/10 00:55:24;;;;;;;;;19.00;17.00;;;;;14.06;100.00;98007.47;6177775;28;96651;-66
2023/11/10 00:58:27;;;;;;;;;12.25;11.50;;;;;14.10;100.00;97989.59;6194902;28;96862;-67
2023/11/10 01:01:35;;;;;;;;;8.60;8.60;;;;;14.12;100.00;97993.66;6191447;28;98647;-66
2023/11/10 01:04:39;;;;;;;;;10.00;10.00;;;;;14.14;100.00;97999.63;6188288;28;96851;-66
2023/11/10 01:07:45;;;;;;;;;8.20;7.80;;;;;14.17;100.00;97995.59;6165152;28;96898;-66
2023/11/10 01:10:48;;;;;;;;;9.00;8.00;;;;;14.13;100.00;97997.19;6189266;28;96528;-66
2023/11/10 01:13:51;;;;;;;;;9.20;8.00;;;;;14.38;100.00;97986.44;6187044;28;96831;-66
2023/11/10 01:16:56;;;;;;;;;5.00;4.60;;;;;14.52;100.00;97987.56;6187263;28;96584;-66
2023/11/10 01:20:01;;;;;;;;;7.00;7.00;;;;;14.66;100.00;97982.44;6189302;28;96284;-66
2023/11/10 01:23:04;;;;;;;;;9.00;8.50;;;;;14.74;100.00;97988.16;6187511;28;96251;-65
2023/11/10 01:26:07;;;;;;;;;8.00;7.25;;;;;14.71;100.00;97980.53;6186179;28;96605;-66
2023/11/10 01:29:11;;;;;;;;;8.00;7.00;;;;;14.58;100.00;97974.81;6162907;28;96706;-66
2023/11/10 01:32:14;;;;;;;;;6.00;6.00;;;;;14.55;100.00;97973.47;6181535;28;97302;-66
2023/11/10 01:35:19;;;;;;;;;8.20;7.20;;;;;14.41;100.00;97969.66;6187039;28;98497;-65
2023/11/10 01:38:22;;;;;;;;;9.60;9.60;;;;;14.13;100.00;97961.94;6169649;28;96385;-66
2023/11/10 01:41:27;;;;;;;;;9.33;9.00;;;;;14.03;100.00;97956.50;6186564;28;96322;-66
2023/11/10 01:44:30;;;;;;;;;9.40;8.60;;;;;14.01;100.00;97955.97;6169881;28;96490;-66
2023/11/10 01:47:33;;;;;;;;;14.00;12.50;;;;;13.95;100.00;97959.75;6186848;28;96292;-66
2023/11/10 01:50:39;;;;;;;;;9.00;8.40;;;;;13.65;100.00;97953.13;6188682;28;96359;-66
2023/11/10 01:53:42;;;;;;;;;10.00;10.00;;;;;13.41;100.00;97950.03;6188813;28;97564;-66
2023/11/10 01:56:47;;;;;;;;;8.75;8.00;;;;;13.28;100.00;97936.16;6186856;28;96780;-61
2023/11/10 01:59:56;;;;;;;;;10.00;10.00;;;;;13.36;100.00;97935.63;6154629;28;97767;-62
2023/11/10 02:03:01;;;;;;;;;11.33;10.33;;;;;13.25;100.00;97932.06;6180058;23;97991;-66
2023/11/10 02:06:08;;;;;;;;;11.25;11.00;;;;;13.15;100.00;97928.47;6224382;28;96493;-66
2023/11/10 02:09:12;;;;;;;;;11.00;11.00;;;;;13.14;100.00;97922.28;6237556;28;96422;-66
2023/11/10 02:12:15;;;;;;;;;11.00;10.00;;;;;13.10;100.00;97915.69;6202239;28;98729;-67
2023/11/10 02:15:19;;;;;;;;;9.60;9.00;;;;;13.22;100.00;97897.41;6199383;28;97654;-66
2023/11/10 02:18:22;;;;;;;;;11.80;10.80;;;;;12.69;100.00;97886.75;6198872;28;97704;-66
2023/11/10 02:21:27;;;;;;;;;11.00;11.00;;;;;12.92;100.00;97887.19;6230472;28;96586;-67
2023/11/10 02:24:32;;;;;;;;;8.00;8.00;;;;;12.89;100.00;97879.59;6184875;28;96851;-66
2023/11/10 02:27:37;;;;;;;;;8.80;8.80;;;;;13.14;100.00;97878.97;6221844;28;96436;-66
2023/11/10 02:30:41;;;;;;;;;6.00;6.00;;;;;13.12;100.00;97864.88;6214568;28;96455;-66
2023/11/10 02:33:44;;;;;;;;;7.20;7.20;;;;;13.14;100.00;97865.44;6213988;28;96546;-66
2023/11/10 02:36:47;;;;;;;;;6.00;6.00;;;;;13.44;100.00;97851.19;6201937;28;96233;-67
2023/11/10 02:39:51;;;;;;;;;8.00;7.60;;;;;13.53;100.00;97846.13;6213915;28;96830;-66
2023/11/10 02:42:55;;;;;;;;;7.00;7.00;;;;;13.70;100.00;97852.94;6217108;28;96727;-66
2023/11/10 02:45:59;;;;;;;;;4.20;4.00;;;;;13.57;100.00;97852.63;6222711;28;97286;-67
2023/11/10 02:49:03;;;;;;;;;8.00;7.00;;;;;13.75;100.00;97857.53;6210410;28;96469;-67
2023/11/10 02:52:07;;;;;;;;;8.00;8.00;;;;;13.88;100.00;97857.03;6215033;28;96872;-66
2023/11/10 02:55:10;;;;;;;;;5.00;4.80;;;;;14.09;100.00;97855.16;6188201;28;96893;-67
2023/11/10 02:58:16;;;;;;;;;7.00;7.00;;;;;14.15;100.00;97852.19;6213165;28;97121;-66
2023/11/10 03:01:23;;;;;;;;;7.40;7.40;;;;;14.25;100.00;97840.56;6196760;28;98680;-67
2023/11/10 03:04:27;;;;;;;;;4.00;4.00;;;;;14.28;100.00;97845.41;6213859;28;96846;-66
2023/11/10 03:07:30;;;;;;;;;5.40;5.00;;;;;14.16;100.00;97837.56;6194921;28;97892;-66
2023/11/10 03:10:34;;;;;;;;;8.00;7.20;;;;;14.12;100.00;97850.00;6189254;28;98447;-67
2023/11/10 03:13:41;;;;;;;;;7.00;7.00;;;;;14.00;100.00;97849.47;6215971;28;96364;-66
2023/11/10 03:16:44;;;;;;;;;7.80;7.00;;;;;14.15;100.00;97854.09;6213179;28;96349;-66
2023/11/10 03:19:48;;;;;;;;;8.20;7.20;;;;;14.03;100.00;97851.63;6214042;28;96375;-66
2023/11/10 03:22:51;;;;;;;;;6.20;6.00;;;;;13.98;100.00;97853.50;6202846;28;97020;-66
2023/11/10 03:25:55;;;;;;;;;7.40;7.40;;;;;14.08;100.00;97854.34;6195263;28;96994;-67
2023/11/10 03:29:01;;;;;;;;;8.00;7.60;;;;;14.31;100.00;97850.31;6206872;28;96750;-66
2023/11/10 03:32:06;;;;;;;;;8.00;8.00;;;;;14.42;100.00;97851.97;6181214;28;96925;-66
2023/11/10 03:35:12;;;;;;;;;8.00;7.40;;;;;14.35;100.00;97850.59;6166869;28;98569;-66
2023/11/10 03:38:15;;;;;;;;;6.00;6.00;;;;;14.24;100.00;97849.75;6215316;28;96396;-66
2023/11/10 03:41:18;;;;;;;;;6.00;5.00;;;;;14.13;100.00;97834.56;6196602;28;96513;-66
2023/11/10 03:44:24;;;;;;;;;6.00;5.50;;;;;14.15;100.00;97843.25;6201679;28;97590;-67
2023/11/10 03:47:28;;;;;;;;;5.00;5.00;;;;;14.18;100.00;97831.84;6175087;28;96434;-65
2023/11/10 03:50:31;;;;;;;;;7.00;6.00;;;;;14.02;100.00;97813.97;6201544;28;96299;-66
2023/11/10 03:53:35;;;;;;;;;5.00;4.00;;;;;14.34;100.00;97830.78;6195356;28;99732;-66
2023/11/10 03:56:39;;;;;;;;;6.00;6.00;;;;;14.37;100.00;97832.97;6214757;28;96388;-66
2023/11/10 03:59:44;;;;;;;;;5.00;4.00;;;;;14.46;100.00;97828.66;6213389;28;96433;-66
2023/11/10 04:02:47;;;;;;;;;7.00;6.00;;;;;14.55;100.00;97827.03;6211122;28;96671;-67
2023/11/10 04:05:51;;;;;;;;;5.00;5.00;;;;;14.68;100.00;97823.75;6213044;28;96796;-66
2023/11/10 04:08:54;;;;;;;;;6.00;5.00;;;;;14.72;100.00;97819.38;6211357;28;96749;-66
2023/11/10 04:11:58;;;;;;;;;5.60;5.60;;;;;14.73;100.00;97812.06;6197508;28;96552;-67
2023/11/10 04:15:03;;;;;;;;;7.00;6.00;;;;;14.74;100.00;97802.84;6212338;28;96574;-66
2023/11/10 04:18:06;;;;;;;;;5.00;5.00;;;;;14.79;100.00;97807.44;6201528;28;97451;-65
2023/11/10 04:21:10;;;;;;;;;5.20;4.20;;;;;14.87;100.00;97809.59;6233864;28;97074;-65
2023/11/10 04:24:13;;;;;;;;;3.00;3.00;;;;;14.95;100.00;97804.44;6243992;28;96268;-65
2023/11/10 04:27:18;;;;;;;;;5.00;5.00;;;;;14.96;100.00;97795.19;6242419;28;96500;-65
2023/11/10 04:30:22;;;;;;;;;5.00;5.00;;;;;15.06;100.00;97797.03;6216039;28;96370;-65
2023/11/10 04:33:26;;;;;;;;;5.00;5.00;;;;;15.13;100.00;97795.69;6222723;28;97259;-65
2023/11/10 04:36:30;;;;;;;;;3.75;3.75;;;;;15.22;100.00;97789.66;6218803;28;96238;-65
2023/11/10 04:39:35;;;;;;;;;5.60;5.60;;;;;15.32;100.00;97793.16;6217314;28;96270;-65
2023/11/10 04:42:39;;;;;;;;;6.40;6.00;;;;;15.42;100.00;97790.38;6222015;28;96816;-65
2023/11/10 04:45:44;;;;;;;;;4.00;4.00;;;;;15.48;100.00;97793.88;6219212;28;96395;-65
2023/11/10 04:48:47;;;;;;;;;5.00;5.00;;;;;15.49;100.00;97787.38;6195455;28;97367;-65
2023/11/10 04:51:52;;;;;;;;;6.00;6.00;;;;;15.44;100.00;97781.97;6204790;28;97031;-65
2023/11/10 04:54:56;;;;;;;;;7.60;7.00;;;;;15.33;100.00;97781.19;6176826;28;97255;-66
2023/11/10 04:57:59;;;;;;;;;7.00;7.00;;;;;15.20;100.00;97786.44;6186093;28;96464;-65
2023/11/10 05:01:06;;;;;;;;;5.67;5.00;;;;;15.07;100.00;97785.09;6192731;28;96703;-65
2023/11/10 05:04:12;;;;;;;;;7.20;6.20;;;;;14.98;100.00;97786.78;6213150;28;97086;-65
2023/11/10 05:07:16;;;;;;;;;4.00;4.00;;;;;14.87;100.00;97788.69;6198613;28;96762;-65
2023/11/10 05:10:19;;;;;;;;;4.00;4.00;;;;;14.78;100.00;97790.34;6226722;28;96437;-65
2023/11/10 05:13:22;;;;;;;;;6.80;6.80;;;;;14.69;100.00;97783.88;6243096;28;96379;-66
2023/11/10 05:16:29;;;;;;;;;5.00;5.00;;;;;14.63;100.00;97788.47;6195576;28;96347;-65
2023/11/10 05:19:33;;;;;;;;;8.00;7.00;;;;;14.60;100.00;97783.63;6219981;28;96853;-65
2023/11/10 05:22:36;;;;;;;;;6.80;6.20;;;;;14.63;100.00;97776.81;6208467;28;97282;-66
2023/11/10 05:25:41;;;;;;;;;4.00;4.00;;;;;14.67;100.00;97777.88;6203216;28;96639;-65
2023/11/10 05:28:44;;;;;;;;;6.67;6.67;;;;;14.64;100.00;97773.84;6205827;28;96737;-65
2023/11/10 05:31:49;;;;;;;;;7.75;6.75;;;;;14.66;100.00;97781.72;6199252;28;97119;-65
2023/11/10 05:34:54;;;;;;;;;8.00;8.00;;;;;14.67;100.00;97781.41;6219484;28;96348;-65
2023/11/10 05:37:57;;;;;;;;;7.00;5.40;;;;;14.70;100.00;97786.31;6199693;28;96877;-60
2023/11/10 05:41:00;;;;;;;;;6.00;5.00;;;;;14.73;100.00;97790.38;6196952;28;96348;-61
2023/11/10 05:44:04;;;;;;;;;5.00;5.00;;;;;14.70;100.00;97788.22;6213819;28;96490;-61
2023/11/10 05:47:09;;;;;;;;;4.00;4.00;;;;;14.68;100.00;97787.66;6202793;28;96994;-61
2023/11/10 05:50:14;;;;;;;;;7.80;7.20;;;;;14.58;100.00;97784.97;6212821;28;96951;-61
2023/11/10 05:53:19;;;;;;;;;7.60;7.60;;;;;14.51;100.00;97785.28;6213127;28;96546;-62
2023/11/10 05:56:24;;;;;;;;;6.60;6.60;;;;;14.33;100.00;97774.94;6207394;28;96622;-61
2023/11/10 05:59:27;;;;;;;;;7.00;7.00;;;;;14.36;100.00;97790.72;6213430;28;96922;-61
2023/11/10 06:02:32;;;;;;;;;7.00;7.00;;;;;14.00;100.00;97730.25;6213243;28;96458;-61
2023/11/10 06:05:35;;;;;;;;;8.40;7.40;;;;;14.40;100.00;97785.53;6194420;28;98820;-61
2023/11/10 06:08:39;;;;;;;;;7.00;6.00;;;;;14.22;100.00;97784.97;6213000;28;96916;-61
2023/11/10 06:11:44;;;;;;;;;7.00;6.00;;;;;14.05;100.00;97795.28;6213670;28;96462;-61
2023/11/10 06:14:57;;;;;;;;;7.50;6.00;;;;;14.02;100.00;97795.84;6214088;28;96194;-61
2023/11/10 06:18:02;;;;;;;;;6.80;6.20;;;;;13.96;100.00;97788.78;6212209;28;96107;-61
2023/11/10 06:21:05;;;;;;;;;8.40;8.00;;;;;13.88;100.00;97790.09;6195092;28;96931;-60
2023/11/10 06:24:09;;;;;;;;;6.75;6.50;;;;;13.90;100.00;97797.97;6216844;28;96336;-61
2023/11/10 06:27:13;;;;;;;;;7.60;7.00;;;;;13.83;100.00;97787.38;6208088;28;97390;-61
2023/11/10 06:30:17;;;;;;;;;6.25;6.25;;;;;13.91;100.00;97796.09;6195900;28;98522;-61
2023/11/10 06:33:22;;;;;;;;;9.00;8.40;;;;;13.93;100.00;97802.84;6194544;28;96657;-61
2023/11/10 06:36:26;;;;;;;;;6.20;6.20;;;;;13.94;100.00;97799.06;6196191;28;96854;-61
2023/11/10 06:39:29;;;;;;;;;9.00;8.00;;;;;13.99;100.00;97792.81;6220277;28;96611;-62
2023/11/10 06:42:34;;;;;;;;;9.00;8.00;;;;;14.06;100.00;97802.31;6237081;28;96638;-62
2023/11/10 06:45:38;;;;;;;;;7.00;6.00;;;;;14.12;100.00;97795.03;6219065;28;98515;-60
2023/11/10 06:48:43;;;;;;;;;8.00;7.75;;;;;14.17;100.00;97798.50;6220142;28;96855;-61
2023/11/10 06:51:46;;;;;;;;;11.60;10.60;;;;;14.17;100.00;97793.09;6219180;28;96600;-61
2023/11/10 06:54:50;;;;;;;;;10.00;8.75;;;;;14.20;100.00;97797.19;6218764;28;96877;-61
2023/11/10 06:57:55;;;;;;;;;10.00;9.00;;;;;14.23;100.00;97793.91;6218250;28;96916;-66
2023/11/10 07:01:00;;;;;;;;;10.20;10.00;;;;;14.28;100.00;97788.50;6238306;28;96593;-66
2023/11/10 07:04:06;;;;;;;;;9.00;8.00;;;;;14.34;100.00;97798.25;6206165;28;96601;-66
2023/11/10 07:07:11;;;;;;;;;9.75;8.00;;;;;14.41;100.00;97784.47;6221737;28;96633;-66
2023/11/10 07:10:14;;;;;;;;;7.00;6.50;;;;;14.48;100.00;97791.22;6214541;28;96421;-67
2023/11/10 07:13:18;;;;;;;;;8.20;8.00;;;;;14.54;100.00;97787.41;6214538;28;96305;-66
2023/11/10 07:16:26;;;;;;;;;9.00;8.00;;;;;14.60;100.00;97788.22;6214101;28;98295;-67
2023/11/10 07:19:31;;;;;;;;;11.00;10.00;;;;;14.68;100.00;97793.91;6192061;28;98444;-66
2023/11/10 07:22:35;;;;;;;;;12.00;11.00;;;;;14.66;100.00;97789.84;6202462;28;97177;-67
2023/11/10 07:25:39;;;;;;;;;11.50;10.00;;;;;14.69;100.00;97794.72;6212790;28;96781;-66
2023/11/10 07:28:42;;;;;;;;;8.20;8.20;;;;;14.72;100.00;97784.13;6215122;28;96293;-67
2023/11/10 07:31:46;;;;;;;;;10.00;9.75;;;;;14.82;100.00;97786.00;6196631;28;97532;-67
2023/11/10 07:34:50;;;;;;;;;13.00;10.00;;;;;14.93;100.00;97787.59;6188037;28;96868;-67
2023/11/10 07:37:54;;;;;;;;;10.00;10.00;;;;;15.01;100.00;97789.72;6215020;28;96541;-66
2023/11/10 07:40:58;;;;;;;;;14.00;12.00;;;;;15.17;100.00;97788.59;6214772;28;96239;-67
2023/11/10 07:44:01;;;;;;;;;9.00;9.00;;;;;15.35;100.00;97792.56;6213084;28;96557;-67
2023/11/10 07:47:06;;;;;;;;;9.80;9.40;;;;;15.53;100.00;97783.03;6214599;28;96582;-67
2023/11/10 07:50:11;;;;;;;;;10.00;9.33;;;;;15.81;100.00;97781.50;6191676;28;96373;-67
2023/11/10 07:53:14;;;;;;;;;9.00;8.50;;;;;16.12;100.00;97787.53;6176674;28;98432;-67
2023/11/10 07:56:17;;;;;;;;;9.40;9.00;;;;;16.38;100.00;97791.63;6197598;28;96357;-66
2023/11/10 07:59:21;;;;;;;;;11.00;10.00;;;;;16.46;100.00;97782.88;6196692;28;96522;-67
2023/11/10 08:02:24;;;;;;;;;8.25;8.00;;;;;16.50;100.00;97794.00;6196465;28;97466;-67
2023/11/10 08:05:30;;;;;;;;;14.00;14.00;;;;;16.49;100.00;97795.91;6213917;28;96914;-66
2023/11/10 08:08:33;;;;;;;;;12.00;11.00;;;;;16.46;100.00;97785.59;6218576;28;97062;-66
2023/11/10 08:11:37;;;;;;;;;13.40;13.40;;;;;16.52;100.00;97792.59;6213979;28;97069;-67
2023/11/10 08:14:55;;;;;;;;;12.50;12.00;;;;;16.61;100.00;97790.13;6201805;28;96934;-66
2023/11/10 08:17:58;;;;;;;;;12.00;12.00;;;;;16.71;100.00;97787.31;6212665;28;96860;-67
2023/11/10 08:21:03;;;;;;;;;11.60;10.60;;;;;16.78;100.00;97790.47;6213529;28;96362;-66
2023/11/10 08:24:07;;;;;;;;;12.00;11.75;;;;;16.78;100.00;97788.56;6196709;28;98713;-67
2023/11/10 08:27:11;;;;;;;;;11.40;11.00;;;;;16.73;100.00;97791.34;6195322;28;96630;-67
2023/11/10 08:30:16;;;;;;;;;10.00;10.00;;;;;16.70;100.00;97796.56;6195700;28;98816;-66
2023/11/10 08:33:19;;;;;;;;;9.60;9.00;;;;;16.68;100.00;97791.38;6196559;28;97864;-66
2023/11/10 08:36:24;;;;;;;;;14.00;12.00;;;;;16.66;100.00;97795.50;6214244;28;96648;-66
2023/11/10 08:39:27;;;;;;;;;13.00;9.25;;;;;16.67;100.00;97797.13;6179080;28;98600;-67
2023/11/10 08:42:31;;;;;;;;;13.00;12.40;;;;;16.64;100.00;97797.69;6196375;28;96840;-66
2023/11/10 08:45:34;;;;;;;;;12.00;10.60;;;;;16.69;100.00;97792.22;6199656;28;97192;-67
2023/11/10 08:48:38;;;;;;;;;11.75;10.00;;;;;16.75;100.00;97800.03;6195894;28;96379;-66
2023/11/10 08:51:43;;;;;;;;;11.00;10.20;;;;;16.85;100.00;97793.69;6195316;28;96734;-66
2023/11/10 08:54:47;;;;;;;;;12.00;11.00;;;;;16.95;100.00;97798.22;6196321;28;96400;-67
2023/11/10 08:57:51;;;;;;;;;13.00;12.00;;;;;17.10;100.00;97798.84;6177944;28;99346;-66
2023/11/10 09:00:55;;;;;;;;;16.20;16.00;;;;;17.37;100.00;97814.59;6195426;28;97376;-66
2023/11/10 09:03:58;;;;;;;;;12.80;12.80;;;;;17.73;100.00;97802.16;6211943;28;98539;-66
2023/11/10 09:07:22;;;;;;;;;12.00;11.33;;;;;18.23;100.00;97799.75;6212168;28;96377;-67
2023/11/10 09:10:25;;;;;;;;;12.00;11.00;;;;;19.22;100.00;97808.38;6213381;28;96399;-66
2023/11/10 09:13:28;;;;;;;;;12.60;11.60;;;;;20.64;100.00;97778.63;6196057;28;99121;-67
2023/11/10 09:16:32;;;;;;;;;13.00;12.00;;;;;22.49;94.20;97788.25;6195532;28;98459;-68
2023/11/10 09:19:35;;;;;;;;;9.00;8.40;;;;;24.08;83.11;97786.56;6212852;28;96949;-69
2023/11/10 09:22:40;;;;;;;;;9.00;8.00;;;;;25.08;75.43;97790.97;6193934;28;96706;-69
2023/11/10 09:25:44;;;;;;;;;10.80;10.00;;;;;25.48;70.59;97788.34;6195110;28;96860;-69
2023/11/10 09:28:48;;;;;;;;;10.00;10.00;;;;;25.85;66.19;97798.22;6212206;28;96683;-69
2023/11/10 09:31:54;;;;;;;;;11.20;11.00;;;;;26.84;62.80;97788.44;6194823;28;96328;-69
2023/11/10 09:34:57;;;;;;;;;9.20;7.80;;;;;28.35;52.72;97782.22;6194144;28;98383;-69
2023/11/10 09:38:03;;;;;;;;;10.00;9.00;;;;;29.82;45.51;97776.94;6194104;28;96693;-69
2023/11/10 09:41:14;;;;;;;;;10.00;9.00;;;;;31.04;41.17;97777.31;6211538;28;96627;-69
2023/11/10 09:44:18;;;;;;;;;9.40;9.00;;;;;31.50;37.67;97775.75;6194738;28;96817;-70
2023/11/10 09:47:23;;;;;;;;;8.25;8.25;;;;;31.33;37.32;97766.03;6212587;28;96303;-70
2023/11/10 09:50:29;;;;;;;;;10.40;9.00;;;;;30.63;37.88;97770.91;6212714;28;96537;-69
2023/11/10 09:53:35;;;;;;;;;12.75;11.75;;;;;29.51;39.84;97763.41;6212330;28;97020;-69
2023/11/10 09:56:39;;;;;;;;;10.60;9.60;;;;;28.60;44.43;97761.34;6212772;28;97080;-69
2023/11/10 09:59:44;;;;;;;;;9.40;8.40;;;;;27.96;49.58;97753.66;6212522;28;96534;-69
2023/11/10 10:02:49;;;;;;;;;8.00;8.00;;;;;27.58;51.97;97755.22;6211862;28;96492;-69
2023/11/10 10:05:53;;;;;;;;;8.00;7.75;;;;;27.36;52.58;97760.59;6212167;28;96867;-69
2023/11/10 10:08:58;;;;;;;;;11.00;9.00;;;;;26.65;56.30;97758.72;6212291;28;96639;-68
2023/11/10 10:12:02;;;;;;;;;7.60;6.60;;;;;25.57;60.77;97749.63;6212471;28;97304;-68
2023/11/10 10:15:06;;;;;;;;;7.00;6.67;;;;;24.68;67.94;97754.13;6194516;28;98544;-68
2023/11/10 10:18:10;;;;;;;;;8.00;7.00;;;;;23.86;73.81;97750.31;6202225;28;97054;-68
2023/11/10 10:21:13;;;;;;;;;10.00;8.60;;;;;23.11;77.22;97747.34;6188379;28;97628;-68
2023/11/10 10:24:18;;;;;;;;;8.00;7.00;;;;;22.99;78.43;97736.25;6200382;28;96676;-68
2023/11/10 10:27:21;;;;;;;;;7.00;7.00;;;;;23.73;72.40;97727.44;6212338;28;98066;-62
2023/11/10 10:30:27;;;;;;;;;6.00;5.60;;;;;24.57;60.98;97721.50;6216122;28;96915;-62
2023/11/10 10:33:30;;;;;;;;;4.00;4.00;;;;;24.99;59.23;97727.66;6218435;28;96171;-63
2023/11/10 10:36:35;;;;;;;;;3.00;3.00;;;;;25.58;56.17;97720.88;6220748;28;96333;-62
2023/11/10 10:39:44;;;;;;;;;4.20;3.80;;;;;26.09;50.45;97709.00;6220030;28;96355;-63
2023/11/10 10:42:50;;;;;;;;;4.50;3.00;;;;;25.05;49.46;97717.22;6219816;28;96322;-62
2023/11/10 10:45:55;;;;;;;;;5.00;4.00;;;;;24.07;55.09;97709.81;6219636;28;96309;-63
2023/11/10 10:48:59;;;;;;;;;5.00;5.00;;;;;23.31;63.47;97708.09;6218381;28;96310;-62
2023/11/10 10:52:03;;;;;;;;;3.00;3.00;;;;;22.67;65.25;97699.19;6218418;28;96284;-62
2023/11/10 10:55:09;;;;;;;;;4.00;4.00;;;;;22.19;72.79;97690.41;6217941;28;97042;-63
2023/11/10 10:58:14;;;;;;;;;5.00;4.60;;;;;21.78;75.31;97696.41;6215640;28;96356;-63
2023/11/10 11:01:19;;;;;;;;;4.40;4.00;;;;;21.48;74.23;97696.22;6217463;28;96379;-63
2023/11/10 11:04:29;;;;;;;;;5.60;5.60;;;;;21.11;77.41;97686.63;6198535;28;96686;-63
2023/11/10 11:08:00;;;;;;;;;5.00;4.00;;;;;20.82;79.02;97704.75;6218363;28;96187;-63
2023/11/10 11:11:24;;;;;;;;;5.50;4.50;;;;;20.46;82.39;97704.91;6213780;28;98554;-62
2023/11/10 11:14:44;;;;;;;;;4.00;4.00;;;;;20.18;83.50;97696.03;6200553;28;96609;-61
2023/11/10 11:18:23;;;;;;;;;5.00;4.00;;;;;19.82;89.56;97691.44;6214806;28;96750;-61
2023/11/10 11:21:27;;;;;;;;;7.40;5.00;;;;;19.55;91.13;97698.94;6200246;28;96359;-62
2023/11/10 11:24:31;;;;;;;;;6.40;6.40;;;;;19.21;94.83;97680.25;6217650;28;96310;-62
2023/11/10 11:27:37;;;;;;;;;3.20;3.00;;;;;18.82;95.12;97684.34;6199765;28;96990;-62
2023/11/10 11:30:41;;;;;;;;;3.00;3.00;;;;;18.63;97.91;97691.00;6193509;28;96286;-62
2023/11/10 11:33:51;;;;;;;;;7.00;6.25;;;;;18.48;100.00;97695.63;6192940;28;96326;-61
2023/11/10 11:36:57;;;;;;;;;3.60;3.60;;;;;18.33;100.00;97693.16;6212982;28;96334;-66
2023/11/10 11:40:01;;;;;;;;;5.00;5.00;;;;;18.18;100.00;97694.25;6200355;28;96856;-66
2023/11/10 11:43:13;;;;;;;;;7.00;7.00;;;;;18.11;100.00;97687.59;6218738;28;96415;-66
2023/11/10 11:46:17;;;;;;;;;5.00;5.00;;;;;18.03;100.00;97688.28;6218015;28;96379;-65
2023/11/10 11:49:22;;;;;;;;;3.00;2.40;;;;;17.90;100.00;97681.66;6218836;28;96552;-65
2023/11/10 11:52:26;;;;;;;;;4.00;3.25;;;;;17.92;100.00;97695.00;6184261;28;98559;-66
2023/11/10 11:55:29;;;;;;;;;6.40;5.00;;;;;17.90;100.00;97686.28;6213507;28;98894;-66
2023/11/10 11:58:35;;;;;;;;;3.67;3.67;;;;;17.81;100.00;97688.91;6200501;28;98427;-66
2023/11/10 12:01:39;;;;;;;;;2.80;2.80;;;;;17.75;100.00;97674.53;6200900;28;96780;-66
2023/11/10 12:04:43;;;;;;;;;4.00;3.00;;;;;17.69;100.00;97674.94;6213936;28;97045;-65
2023/11/10 12:07:48;;;;;;;;;4.00;3.20;;;;;17.64;100.00;97680.47;6186730;28;96834;-65
2023/11/10 12:10:52;;;;;;;;;3.00;3.00;;;;;17.38;100.00;97646.50;6211817;28;96492;-65
2023/11/10 12:13:57;;;;;;;;;4.00;4.00;;;;;17.57;100.00;97666.34;6212648;28;97514;-65
2023/11/10 12:17:02;;;;;;;;;4.00;4.00;;;;;17.45;100.00;97664.06;6212235;28;96811;-65
2023/11/10 12:20:09;;;;;;;;;6.33;6.00;;;;;17.48;100.00;97670.88;6199000;28;99210;-65
2023/11/10 12:23:14;;;;;;;;;8.00;7.00;;;;;17.42;100.00;97664.66;6211277;28;96864;-65
2023/11/10 12:26:18;;;;;;;;;8.00;7.50;;;;;17.43;100.00;97670.94;6189717;28;97530;-65
2023/11/10 12:29:28;;;;;;;;;4.40;4.00;;;;;17.30;100.00;97672.47;6211284;28;97755;-65
2023/11/10 12:32:33;;;;;;;;;4.00;4.00;;;;;17.14;100.00;97657.47;6185538;28;96865;-65
2023/11/10 12:35:39;;;;;;;;;11.00;8.00;;;;;17.12;100.00;97663.19;6190262;28;98606;-65
2023/11/10 12:38:42;;;;;;;;;6.40;6.40;;;;;16.81;100.00;97660.06;6182087;28;98617;-65
2023/11/10 12:41:51;;;;;;;;;7.00;6.00;;;;;16.73;100.00;97649.00;6215067;28;96303;-66
2023/11/10 12:44:57;;;;;;;;;6.75;6.00;;;;;16.82;100.00;97649.97;6216516;28;96851;-66
2023/11/10 12:48:00;;;;;;;;;4.00;4.00;;;;;16.88;100.00;97646.09;6214225;28;97088;-62
2023/11/10 12:51:11;;;;;;;;;8.00;8.00;;;;;16.88;100.00;97636.03;6209697;28;96396;-63
2023/11/10 12:54:16;;;;;;;;;7.20;7.00;;;;;16.98;100.00;97636.97;6203750;28;96979;-62
2023/11/10 12:57:19;;;;;;;;;6.75;6.00;;;;;16.98;100.00;97632.34;6187279;28;96954;-62
2023/11/10 13:00:25;;;;;;;;;6.75;6.75;;;;;16.99;100.00;97623.09;6184012;28;96875;-62
2023/11/10 13:03:29;;;;;;;;;9.60;9.00;;;;;17.01;100.00;97630.94;6178083;28;97018;-61
2023/11/10 13:06:33;;;;;;;;;9.00;8.40;;;;;17.01;100.00;97617.34;6196254;28;98353;-62
2023/11/10 13:09:36;;;;;;;;;6.00;6.00;;;;;17.01;100.00;97625.50;6216101;28;96896;-64
2023/11/10 13:12:40;;;;;;;;;8.50;8.00;;;;;16.96;100.00;97631.03;6212660;28;96361;-62
2023/11/10 13:15:46;;;;;;;;;14.00;13.00;;;;;16.77;100.00;97625.56;6194911;28;96362;-62
2023/11/10 13:18:50;;;;;;;;;10.00;9.00;;;;;16.62;100.00;97623.84;6214546;28;96537;-63
2023/11/10 13:21:54;;;;;;;;;11.20;10.00;;;;;16.62;100.00;97621.13;6214970;28;96367;-61
2023/11/10 13:24:57;;;;;;;;;9.20;9.00;;;;;16.59;100.00;97620.88;6197286;28;96835;-62
2023/11/10 13:28:01;;;;;;;;;8.60;8.00;;;;;16.61;100.00;97615.97;6216430;28;96245;-62
2023/11/10 13:31:08;;;;;;;;;11.00;9.60;;;;;16.66;100.00;97611.28;6178083;28;98486;-62
2023/11/10 13:34:31;;;;;;;;;11.40;10.40;;;;;16.64;100.00;97608.03;6195709;28;96467;-62
2023/11/10 13:37:36;;;;;;;;;14.00;12.00;;;;;16.64;100.00;97609.94;6195643;28;96344;-62
2023/11/10 13:40:40;;;;;;;;;10.00;9.00;;;;;16.62;100.00;97609.41;6213142;28;96535;-63
2023/11/10 13:43:43;;;;;;;;;12.00;9.00;;;;;16.58;100.00;97603.75;6213607;28;96697;-61
2023/11/10 13:46:48;;;;;;;;;8.00;8.00;;;;;16.61;100.00;97602.38;6214715;28;96603;-61
2023/11/10 13:49:53;;;;;;;;;8.75;8.00;;;;;16.60;100.00;97604.28;6214320;28;96337;-62
2023/11/10 13:52:56;;;;;;;;;8.00;7.00;;;;;16.57;100.00;97602.09;6196512;28;97077;-62
2023/11/10 13:56:00;;;;;;;;;9.60;8.00;;;;;16.55;100.00;97600.78;6197349;28;96830;-61
2023/11/10 13:59:04;;;;;;;;;9.00;8.00;;;;;16.51;100.00;97597.84;6217909;28;96705;-66
2023/11/10 14:02:09;;;;;;;;;7.25;7.00;;;;;16.50;100.00;97598.13;6200599;28;96639;-66
2023/11/10 14:05:13;;;;;;;;;8.00;7.00;;;;;16.47;100.00;97600.31;6198175;28;98415;-66
2023/11/10 14:08:16;;;;;;;;;8.00;8.00;;;;;16.43;100.00;97596.56;6212104;28;96597;-66
2023/11/10 14:11:20;;;;;;;;;9.00;8.00;;;;;16.45;100.00;97593.56;6193091;28;96860;-66
2023/11/10 14:14:23;;;;;;;;;7.25;7.25;;;;;16.45;100.00;97588.13;6211461;28;96768;-65